createdAt,value
2019-01-04T00:01:14.717Z,37.27
2019-01-04T00:03:42.886Z,39.00
2019-01-04T00:06:11.044Z,42.37
2019-01-04T00:08:39.207Z,41.60
2019-01-04T00:11:07.348Z,47.30
2019-01-04T00:13:35.520Z,51.67
2019-01-04T00:16:04.341Z,67.67
2019-01-04T00:18:32.504Z,108.50
2019-01-04T00:21:00.669Z,122.63
2019-01-04T00:23:28.836Z,91.43
2019-01-04T00:25:57.385Z,79.77
2019-01-04T00:28:25.554Z,69.07
2019-01-04T00:30:54.111Z,66.67
2019-01-04T00:33:22.273Z,63.60
2019-01-04T00:35:50.853Z,63.03
2019-01-04T00:38:19.010Z,53.33
2019-01-04T00:40:47.420Z,54.03
2019-01-04T00:43:16.005Z,57.23
2019-01-04T00:45:44.466Z,52.10
2019-01-04T00:48:13.258Z,43.43
2019-01-04T00:50:41.493Z,43.60
2019-01-04T00:53:09.654Z,42.50
2019-01-04T00:55:42.475Z,43.13
2019-01-04T00:58:16.856Z,41.17
2019-01-04T01:00:46.536Z,38.77
2019-01-04T01:03:43.824Z,34.93
2019-01-04T01:06:16.445Z,37.93
2019-01-04T01:09:04.184Z,34.20
2019-01-04T01:11:50.424Z,34.57
2019-01-04T01:14:22.776Z,31.40
2019-01-04T01:17:12.350Z,32.53
2019-01-04T01:19:42.056Z,32.73
2019-01-04T01:22:28.272Z,31.57
2019-01-04T01:25:14.458Z,30.17
2019-01-04T01:28:00.509Z,29.37
2019-01-04T01:30:45.451Z,29.80
2019-01-04T01:33:17.778Z,29.07
2019-01-04T01:36:04.115Z,25.90
2019-01-04T01:38:45.840Z,32.33
2019-01-04T01:41:15.536Z,29.03
2019-01-04T01:44:02.294Z,27.90
2019-01-04T01:46:31.981Z,31.43
2019-01-04T01:49:22.699Z,26.20
2019-01-04T01:51:58.839Z,30.90
2019-01-04T01:54:27.003Z,29.03
2019-01-04T01:56:55.143Z,26.47
2019-01-04T01:59:23.295Z,31.83
2019-01-04T02:01:51.777Z,29.27
2019-01-04T02:04:19.919Z,29.13
2019-01-04T02:06:48.067Z,29.10
2019-01-04T02:09:16.242Z,30.47
2019-01-04T02:11:44.378Z,31.13
2019-01-04T02:14:12.544Z,31.87
2019-01-04T02:16:40.742Z,29.53
2019-01-04T02:19:08.889Z,29.83
2019-01-04T02:21:37.450Z,29.90
2019-01-04T02:24:05.597Z,29.13
2019-01-04T02:26:33.725Z,31.17
2019-01-04T02:29:01.885Z,28.77
2019-01-04T02:31:30.057Z,32.07
2019-01-04T02:33:58.221Z,31.70
2019-01-04T02:36:26.701Z,33.67
2019-01-04T02:38:55.198Z,30.87
2019-01-04T02:41:23.337Z,31.60
2019-01-04T02:43:51.496Z,32.80
2019-01-04T02:46:19.650Z,34.87
2019-01-04T02:48:47.793Z,31.30
2019-01-04T02:51:15.959Z,33.27
2019-01-04T02:53:44.102Z,36.47
2019-01-04T02:56:12.326Z,34.60
2019-01-04T02:58:40.801Z,37.40
2019-01-04T03:01:09.319Z,32.10
2019-01-04T03:03:37.731Z,36.90
2019-01-04T03:06:05.856Z,38.67
2019-01-04T03:08:34.015Z,38.87
2019-01-04T03:11:02.165Z,40.57
2019-01-04T03:13:30.319Z,35.17
2019-01-04T03:15:58.807Z,30.93
2019-01-04T03:18:27.537Z,38.27
2019-01-04T03:20:55.691Z,40.67
2019-01-04T03:23:23.844Z,34.37
2019-01-04T03:25:51.975Z,33.13
2019-01-04T03:28:20.110Z,34.23
2019-01-04T03:30:48.358Z,32.40
2019-01-04T03:33:16.514Z,34.07
2019-01-04T03:35:45.012Z,34.97
2019-01-04T03:38:13.186Z,35.37
2019-01-04T03:40:41.653Z,33.47
2019-01-04T03:43:10.137Z,32.70
2019-01-04T03:45:38.314Z,34.10
2019-01-04T03:48:06.788Z,35.00
2019-01-04T03:50:34.999Z,32.37
2019-01-04T03:53:03.164Z,36.93
2019-01-04T03:55:31.340Z,34.30
2019-01-04T03:57:59.497Z,31.03
2019-01-04T04:00:27.690Z,30.47
2019-01-04T04:02:56.149Z,31.80
2019-01-04T04:05:24.314Z,34.30
2019-01-04T04:07:52.800Z,33.30
2019-01-04T04:10:21.274Z,33.07
2019-01-04T04:12:49.451Z,35.40
2019-01-04T04:15:17.600Z,39.10
2019-01-04T04:17:45.745Z,35.73
2019-01-04T04:20:13.924Z,33.70
2019-01-04T04:22:42.987Z,37.50
2019-01-04T04:25:11.143Z,35.47
2019-01-04T04:27:39.381Z,36.97
2019-01-04T04:30:07.793Z,33.97
2019-01-04T04:32:35.924Z,36.67
2019-01-04T04:35:04.881Z,33.33
2019-01-04T04:37:33.442Z,34.50
2019-01-04T04:40:01.662Z,35.10
2019-01-04T04:42:29.824Z,37.37
2019-01-04T04:44:57.954Z,32.87
2019-01-04T04:47:26.111Z,31.23
2019-01-04T04:49:54.332Z,30.57
2019-01-04T04:52:22.492Z,34.17
2019-01-04T04:54:50.973Z,33.10
2019-01-04T04:57:19.435Z,30.30
2019-01-04T04:59:47.642Z,30.40
2019-01-04T05:02:15.847Z,28.53
2019-01-04T05:04:44.011Z,31.40
2019-01-04T05:07:12.181Z,32.50
2019-01-04T05:09:40.322Z,32.80
2019-01-04T05:12:08.806Z,29.60
2019-01-04T05:14:37.293Z,30.67
2019-01-04T05:17:05.883Z,30.60
2019-01-04T05:19:34.050Z,34.63
2019-01-04T05:22:02.199Z,32.63
2019-01-04T05:24:30.367Z,28.20
2019-01-04T05:26:58.505Z,36.07
2019-01-04T05:29:26.683Z,31.90
2019-01-04T05:31:54.826Z,33.03
2019-01-04T05:34:22.968Z,29.67
2019-01-04T05:36:51.138Z,33.67
2019-01-04T05:39:19.334Z,32.77
2019-01-04T05:41:47.863Z,27.87
2019-01-04T05:44:16.336Z,32.73
2019-01-04T05:46:44.506Z,33.43
2019-01-04T05:49:12.652Z,29.47
2019-01-04T05:51:41.114Z,30.10
2019-01-04T05:54:09.291Z,29.23
2019-01-04T05:56:37.420Z,30.43
2019-01-04T05:59:05.584Z,29.77
2019-01-04T06:01:33.721Z,31.77
2019-01-04T06:04:01.893Z,30.63
2019-01-04T06:06:30.046Z,27.67
2019-01-04T06:08:58.213Z,28.60
2019-01-04T06:11:26.354Z,28.10
2019-01-04T06:13:54.828Z,28.57
2019-01-04T06:16:23.317Z,29.73
2019-01-04T06:18:51.460Z,30.00
2019-01-04T06:21:19.611Z,29.53
2019-01-04T06:23:47.741Z,33.77
2019-01-04T06:26:16.269Z,34.50
2019-01-04T06:28:44.755Z,34.80
2019-01-04T06:31:13.220Z,31.07
2019-01-04T06:33:41.718Z,32.03
2019-01-04T06:36:09.871Z,35.40
2019-01-04T06:38:38.031Z,34.00
2019-01-04T06:41:06.188Z,32.03
2019-01-04T06:43:34.720Z,34.63
2019-01-04T06:46:03.252Z,34.57
2019-01-04T06:48:31.744Z,34.33
2019-01-04T06:50:59.960Z,32.30
2019-01-04T06:53:28.195Z,34.83
2019-01-04T06:55:56.343Z,32.77
2019-01-04T06:58:24.483Z,31.97
2019-01-04T07:00:52.626Z,30.17
2019-01-04T07:03:20.776Z,31.57
2019-01-04T07:05:49.291Z,30.50
2019-01-04T07:08:17.792Z,30.30
2019-01-04T07:10:46.757Z,30.63
2019-01-04T07:13:14.877Z,33.83
2019-01-04T07:15:43.102Z,30.27
2019-01-04T07:18:11.611Z,31.57
2019-01-04T07:20:40.207Z,33.57
2019-01-04T07:23:08.362Z,31.37
2019-01-04T07:25:36.819Z,32.27
2019-01-04T07:28:04.986Z,33.10
2019-01-04T07:30:33.165Z,25.40
2019-01-04T07:33:01.341Z,35.07
2019-01-04T07:35:29.553Z,31.97
2019-01-04T07:37:58.074Z,34.00
2019-01-04T07:40:26.245Z,36.00
2019-01-04T07:42:54.837Z,32.70
2019-01-04T07:45:23.347Z,35.07
2019-01-04T07:47:51.491Z,31.37
2019-01-04T07:50:19.650Z,34.77
2019-01-04T07:52:47.792Z,30.30
2019-01-04T07:55:16.261Z,32.70
2019-01-04T07:57:44.759Z,34.47
2019-01-04T08:00:13.640Z,32.00
2019-01-04T08:02:42.546Z,34.07
2019-01-04T08:05:14.412Z,33.47
2019-01-04T08:07:42.895Z,36.83
2019-01-04T08:10:11.472Z,33.60
2019-01-04T08:12:39.618Z,32.50
2019-01-04T08:15:08.723Z,32.00
2019-01-04T08:17:37.233Z,39.97
2019-01-04T08:20:08.247Z,31.90
2019-01-04T08:22:36.404Z,37.87
2019-01-04T08:25:05.420Z,36.23
2019-01-04T08:27:33.862Z,33.77
2019-01-04T08:30:02.023Z,36.67
2019-01-04T08:32:30.222Z,34.97
2019-01-04T08:34:58.381Z,36.90
2019-01-04T08:37:26.518Z,36.17
2019-01-04T08:39:54.703Z,31.63
2019-01-04T08:42:22.843Z,32.97
2019-01-04T08:44:51.021Z,34.07
2019-01-04T08:47:19.483Z,34.10
2019-01-04T08:49:47.983Z,37.40
2019-01-04T08:52:16.448Z,37.17
2019-01-04T08:54:44.587Z,35.37
2019-01-04T08:57:12.750Z,34.87
2019-01-04T08:59:40.888Z,41.63
2019-01-04T09:02:09.056Z,41.10
2019-01-04T09:04:37.232Z,52.30
2019-01-04T09:07:05.707Z,51.37
2019-01-04T09:09:33.882Z,44.67
2019-01-04T09:12:02.040Z,43.77
2019-01-04T09:14:30.512Z,40.23
2019-01-04T09:17:00.119Z,41.27
2019-01-04T09:19:29.098Z,39.67
2019-01-04T09:21:57.290Z,34.40
2019-01-04T09:24:25.461Z,37.60
2019-01-04T09:26:53.921Z,35.67
2019-01-04T09:29:22.403Z,34.67
2019-01-04T09:31:50.891Z,33.60
2019-01-04T09:34:19.056Z,32.97
2019-01-04T09:36:47.539Z,32.40
2019-01-04T09:39:15.717Z,31.07
2019-01-04T09:41:44.399Z,32.33
2019-01-04T09:44:12.891Z,34.67
2019-01-04T09:46:41.388Z,34.27
2019-01-04T09:49:09.840Z,33.50
2019-01-04T09:51:37.997Z,33.47
2019-01-04T09:54:06.206Z,34.60
2019-01-04T09:56:34.709Z,30.73
2019-01-04T09:59:03.193Z,30.17
2019-01-04T10:01:31.700Z,31.80
2019-01-04T10:03:59.904Z,34.80
2019-01-04T10:06:28.137Z,32.90
2019-01-04T10:08:56.283Z,32.30
2019-01-04T10:11:24.440Z,34.87
2019-01-04T10:13:52.937Z,30.53
2019-01-04T10:16:21.419Z,34.33
2019-01-04T10:18:50.036Z,30.87
2019-01-04T10:21:18.180Z,32.73
2019-01-04T10:23:46.348Z,35.50
2019-01-04T10:26:14.479Z,31.97
2019-01-04T10:28:42.706Z,33.90
2019-01-04T10:31:10.873Z,38.13
2019-01-04T10:33:39.335Z,35.73
2019-01-04T10:36:07.849Z,34.43
2019-01-04T10:38:36.258Z,31.47
2019-01-04T10:41:04.477Z,30.30
2019-01-04T10:43:32.647Z,35.10
2019-01-04T10:46:01.126Z,34.80
2019-01-04T10:48:29.593Z,38.63
2019-01-04T10:50:58.060Z,46.17
2019-01-04T10:53:26.557Z,49.10
2019-01-04T10:55:55.045Z,45.73
2019-01-04T10:58:23.223Z,90.67
2019-01-04T11:00:51.362Z,101.20
2019-01-04T11:03:19.874Z,106.93
2019-01-04T11:05:48.028Z,79.90
2019-01-04T11:08:16.433Z,82.50
2019-01-04T11:10:44.909Z,77.40
2019-01-04T11:13:13.070Z,66.57
2019-01-04T11:15:41.640Z,54.23
2019-01-04T11:18:10.081Z,53.03
2019-01-04T11:20:39.394Z,50.47
2019-01-04T11:23:09.092Z,46.00
2019-01-04T11:25:52.497Z,49.73
2019-01-04T11:28:33.278Z,45.20
2019-01-04T11:31:21.399Z,40.30
2019-01-04T11:33:52.957Z,39.47
2019-01-04T11:36:28.145Z,42.33
2019-01-04T11:38:59.775Z,42.40
2019-01-04T11:41:35.338Z,40.10
2019-01-04T11:44:05.027Z,38.70
2019-01-04T11:46:39.495Z,38.60
2019-01-04T11:49:26.168Z,33.67
2019-01-04T11:51:55.936Z,37.47
2019-01-04T11:54:24.155Z,32.40
2019-01-04T11:56:52.571Z,29.50
2019-01-04T11:59:20.722Z,31.13
2019-01-04T12:01:49.196Z,31.87
2019-01-04T12:04:17.357Z,32.43
2019-01-04T12:06:45.825Z,32.90
2019-01-04T12:09:14.009Z,31.37
2019-01-04T12:11:42.150Z,32.47
2019-01-04T12:14:10.322Z,36.90
2019-01-04T12:16:38.465Z,30.00
2019-01-04T12:19:06.619Z,34.37
2019-01-04T12:21:34.799Z,32.33
2019-01-04T12:24:03.009Z,34.50
2019-01-04T12:26:31.168Z,34.80
2019-01-04T12:28:59.950Z,31.67
2019-01-04T12:31:28.079Z,30.20
2019-01-04T12:33:56.917Z,33.53
2019-01-04T12:36:25.082Z,35.07
2019-01-04T12:38:53.399Z,30.90
2019-01-04T12:41:21.939Z,37.70
2019-01-04T12:43:50.433Z,33.47
2019-01-04T12:46:18.893Z,41.33
2019-01-04T12:48:47.055Z,46.47
2019-01-04T12:51:15.198Z,41.30
2019-01-04T12:53:43.695Z,41.67
2019-01-04T12:56:12.185Z,41.80
2019-01-04T12:58:40.672Z,41.60
2019-01-04T13:01:09.151Z,38.77
2019-01-04T13:03:39.572Z,35.40
2019-01-04T13:06:07.707Z,36.97
2019-01-04T13:08:35.858Z,35.93
2019-01-04T13:11:04.126Z,34.53
2019-01-04T13:13:32.751Z,34.97
2019-01-04T13:16:01.480Z,33.77
2019-01-04T13:18:29.649Z,34.27
2019-01-04T13:20:57.850Z,29.40
2019-01-04T13:23:26.037Z,32.33
2019-01-04T13:25:54.162Z,35.00
2019-01-04T13:28:22.332Z,31.90
2019-01-04T13:30:50.819Z,31.13
2019-01-04T13:33:19.312Z,31.93
2019-01-04T13:35:47.783Z,29.93
2019-01-04T13:38:20.021Z,30.30
2019-01-04T13:40:45.889Z,32.60
2019-01-04T13:43:14.163Z,30.80
2019-01-04T13:45:43.618Z,31.10
2019-01-04T13:48:12.166Z,31.70
2019-01-04T13:50:40.396Z,29.67
2019-01-04T13:53:08.560Z,31.07
2019-01-04T13:55:36.717Z,32.10
2019-01-04T13:58:04.892Z,30.00
2019-01-04T14:00:33.370Z,33.73
2019-01-04T14:03:01.506Z,34.37
2019-01-04T14:05:29.665Z,36.53
2019-01-04T14:07:57.792Z,34.80
2019-01-04T14:10:25.942Z,39.07
2019-01-04T14:12:54.153Z,43.97
2019-01-04T14:15:22.637Z,40.20
2019-01-04T14:17:50.796Z,42.10
2019-01-04T14:20:18.941Z,42.60
2019-01-04T14:22:47.070Z,45.27
2019-01-04T14:25:15.214Z,43.63
2019-01-04T14:27:43.376Z,38.10
2019-01-04T14:30:11.809Z,36.80
2019-01-04T14:32:40.315Z,35.20
2019-01-04T14:35:09.206Z,34.87
2019-01-04T14:37:37.374Z,29.27
2019-01-04T14:40:07.061Z,31.40
2019-01-04T14:42:35.221Z,32.90
2019-01-04T14:45:03.750Z,31.47
2019-01-04T14:47:31.917Z,32.23
2019-01-04T14:50:00.133Z,32.67
2019-01-04T14:52:28.317Z,32.10
2019-01-04T14:54:57.152Z,35.03
2019-01-04T14:57:25.621Z,30.47
2019-01-04T14:59:53.790Z,37.37
2019-01-04T15:02:21.934Z,32.60
2019-01-04T15:04:50.099Z,32.50
2019-01-04T15:07:18.235Z,36.90
2019-01-04T15:09:46.412Z,37.07
2019-01-04T15:12:14.886Z,35.67
2019-01-04T15:14:43.440Z,38.97
2019-01-04T15:17:11.912Z,34.20
2019-01-04T15:19:40.063Z,37.50
2019-01-04T15:22:08.234Z,38.37
2019-01-04T15:24:36.358Z,36.00
2019-01-04T15:27:04.525Z,38.60
2019-01-04T15:29:32.677Z,35.80
2019-01-04T15:32:01.169Z,39.83
2019-01-04T15:34:30.731Z,40.63
2019-01-04T15:36:59.329Z,39.07
2019-01-04T15:39:27.787Z,36.60
2019-01-04T15:41:55.963Z,39.50
2019-01-04T15:44:24.456Z,40.67
2019-01-04T15:46:52.635Z,38.17
2019-01-04T15:49:21.108Z,32.17
2019-01-04T15:51:49.570Z,33.60
2019-01-04T15:54:18.676Z,36.17
2019-01-04T15:56:47.220Z,34.80
2019-01-04T15:59:15.759Z,32.03
2019-01-04T16:01:43.897Z,36.17
2019-01-04T16:04:12.046Z,34.40
2019-01-04T16:06:40.216Z,39.20
2019-01-04T16:09:08.710Z,34.77
2019-01-04T16:11:37.209Z,35.77
2019-01-04T16:14:05.355Z,33.07
2019-01-04T16:16:33.602Z,37.60
2019-01-04T16:19:01.733Z,30.37
2019-01-04T16:21:30.217Z,33.83
2019-01-04T16:23:58.946Z,37.40
2019-01-04T16:26:27.083Z,36.33
2019-01-04T16:28:55.251Z,34.03
2019-01-04T16:31:23.410Z,34.80
2019-01-04T16:33:51.564Z,33.93
2019-01-04T16:36:19.728Z,32.10
2019-01-04T16:38:47.864Z,32.20
2019-01-04T16:41:16.404Z,31.30
2019-01-04T16:43:44.880Z,34.90
2019-01-04T16:46:13.424Z,29.30
2019-01-04T16:48:41.627Z,31.27
2019-01-04T16:51:10.000Z,28.23
2019-01-04T16:53:38.164Z,35.73
2019-01-04T16:56:06.312Z,32.97
2019-01-04T16:58:34.852Z,29.27
2019-01-04T17:01:03.498Z,29.67
2019-01-04T17:03:31.642Z,31.50
2019-01-04T17:05:59.863Z,26.40
2019-01-04T17:08:28.043Z,28.83
2019-01-04T17:10:56.198Z,30.80
2019-01-04T17:13:24.335Z,28.37
2019-01-04T17:15:52.480Z,32.37
2019-01-04T17:18:20.626Z,30.43
2019-01-04T17:20:48.782Z,30.97
2019-01-04T17:23:17.204Z,30.73
2019-01-04T17:25:45.696Z,33.37
2019-01-04T17:28:13.853Z,29.97
2019-01-04T17:30:42.266Z,26.90
2019-01-04T17:33:10.718Z,31.50
2019-01-04T17:35:39.197Z,28.83
2019-01-04T17:38:07.340Z,29.57
2019-01-04T17:40:35.811Z,28.27
2019-01-04T17:43:04.027Z,31.03
2019-01-04T17:45:32.803Z,27.20
2019-01-04T17:48:01.288Z,31.30
2019-01-04T17:50:29.432Z,29.63
2019-01-04T17:52:57.597Z,33.37
2019-01-04T17:55:25.745Z,32.60
2019-01-04T17:57:54.239Z,47.17
2019-01-04T18:00:23.242Z,55.90
2019-01-04T18:02:51.526Z,44.77
2019-01-04T18:05:19.656Z,37.80
2019-01-04T18:07:47.885Z,36.73
2019-01-04T18:10:16.031Z,35.90
2019-01-04T18:12:44.511Z,37.30
2019-01-04T18:15:13.070Z,32.60
2019-01-04T18:17:41.223Z,30.63
2019-01-04T18:20:10.974Z,34.37
2019-01-04T18:22:39.305Z,28.00
2019-01-04T18:25:07.529Z,26.63
2019-01-04T18:27:35.667Z,28.37
2019-01-04T18:30:04.993Z,33.10
2019-01-04T18:32:33.483Z,29.33
2019-01-04T18:35:02.046Z,29.10
2019-01-04T18:37:30.171Z,30.53
2019-01-04T18:39:58.678Z,30.50
2019-01-04T18:42:27.157Z,31.07
2019-01-04T18:44:55.664Z,31.20
2019-01-04T18:47:24.572Z,27.70
2019-01-04T18:49:53.391Z,26.30
2019-01-04T18:52:21.888Z,32.57
2019-01-04T18:54:50.017Z,32.10
2019-01-04T18:57:18.551Z,29.07
2019-01-04T18:59:46.678Z,28.47
2019-01-04T19:02:14.852Z,27.90
2019-01-04T19:04:43.026Z,27.83
2019-01-04T19:07:11.487Z,28.70
2019-01-04T19:09:39.974Z,28.73
2019-01-04T19:12:08.145Z,29.57
2019-01-04T19:14:38.271Z,28.63
2019-01-04T19:17:06.435Z,28.17
2019-01-04T19:19:34.585Z,28.57
2019-01-04T19:22:02.748Z,29.63
2019-01-04T19:24:30.899Z,27.13
2019-01-04T19:26:59.076Z,32.83
2019-01-04T19:29:27.213Z,27.97
2019-01-04T19:31:55.393Z,28.93
2019-01-04T19:34:23.563Z,28.90
2019-01-04T19:36:51.747Z,27.60
2019-01-04T19:39:19.877Z,29.53
2019-01-04T19:41:48.016Z,27.07
2019-01-04T19:44:16.499Z,27.90
2019-01-04T19:46:45.008Z,30.67
2019-01-04T19:49:13.492Z,31.83
2019-01-04T19:51:41.658Z,27.33
2019-01-04T19:54:09.821Z,27.53
2019-01-04T19:56:37.966Z,29.33
2019-01-04T19:59:06.534Z,25.30
2019-01-04T20:01:35.354Z,27.87
2019-01-04T20:04:03.519Z,30.67
2019-01-04T20:06:56.215Z,25.47
2019-01-04T20:09:45.954Z,26.93
2019-01-04T20:12:36.765Z,28.10
2019-01-04T20:15:19.059Z,26.37
2019-01-04T20:18:07.298Z,28.67
2019-01-04T20:20:40.173Z,26.10
2019-01-04T20:23:26.461Z,27.73
2019-01-04T20:26:14.657Z,23.30
2019-01-04T20:29:01.397Z,27.90
2019-01-04T20:31:40.264Z,25.30
2019-01-04T20:34:13.089Z,29.27
2019-01-04T20:36:48.969Z,28.87
2019-01-04T20:39:35.076Z,28.83
2019-01-04T20:42:04.866Z,26.63
2019-01-04T20:44:43.859Z,27.77
2019-01-04T20:47:30.299Z,25.13
2019-01-04T20:50:00.228Z,27.27
2019-01-04T20:52:30.039Z,26.13
2019-01-04T20:55:15.226Z,29.93
2019-01-04T20:58:01.471Z,26.17
2019-01-04T21:00:31.286Z,25.17
2019-01-04T21:03:13.224Z,25.73
2019-01-04T21:05:58.517Z,29.50
2019-01-04T21:08:37.563Z,28.73
2019-01-04T21:11:14.114Z,26.30
2019-01-04T21:14:00.689Z,25.13
2019-01-04T21:16:47.082Z,24.90
2019-01-04T21:19:17.202Z,28.20
2019-01-04T21:22:03.872Z,23.70
2019-01-04T21:24:43.178Z,27.50
2019-01-04T21:27:12.960Z,26.60
2019-01-04T21:29:45.866Z,26.30
2019-01-04T21:32:15.666Z,28.77
2019-01-04T21:34:48.318Z,26.23
2019-01-04T21:37:36.454Z,27.57
2019-01-04T21:40:22.773Z,29.77
2019-01-04T21:42:53.192Z,30.50
2019-01-04T21:45:26.037Z,26.50
2019-01-04T21:48:11.155Z,29.57
2019-01-04T21:50:55.677Z,27.60
2019-01-04T21:53:37.100Z,29.07
2019-01-04T21:56:09.465Z,31.20
2019-01-04T21:58:51.116Z,29.27
2019-01-04T22:01:26.704Z,34.20
2019-01-04T22:04:05.951Z,29.10
2019-01-04T22:06:35.755Z,31.07
2019-01-04T22:09:06.923Z,27.30
2019-01-04T22:11:37.053Z,28.20
2019-01-04T22:14:22.112Z,32.10
2019-01-04T22:17:03.677Z,31.20
2019-01-04T22:19:42.604Z,28.63
2019-01-04T22:22:12.375Z,30.80
2019-01-04T22:24:42.176Z,30.23
2019-01-04T22:27:21.174Z,31.13
2019-01-04T22:30:07.865Z,29.40
2019-01-04T22:32:37.655Z,32.00
2019-01-04T22:35:25.538Z,29.13
2019-01-04T22:37:58.533Z,30.03
2019-01-04T22:40:30.888Z,28.67
2019-01-04T22:43:03.692Z,31.33
2019-01-04T22:45:39.193Z,28.87
2019-01-04T22:48:09.324Z,32.70
2019-01-04T22:50:39.687Z,31.97
2019-01-04T22:53:25.828Z,31.23
2019-01-04T22:56:04.310Z,34.87
2019-01-04T22:58:34.465Z,32.07
2019-01-04T23:01:04.229Z,27.87
2019-01-04T23:03:50.432Z,31.00
2019-01-04T23:06:23.525Z,30.90
2019-01-04T23:08:56.721Z,33.23
2019-01-04T23:11:29.814Z,30.17
2019-01-04T23:13:59.919Z,31.40
2019-01-04T23:16:46.594Z,32.30
2019-01-04T23:19:16.352Z,30.57
2019-01-04T23:21:59.604Z,28.97
2019-01-04T23:24:45.764Z,31.90
2019-01-04T23:27:32.246Z,31.53
2019-01-04T23:30:13.982Z,29.20
2019-01-04T23:32:55.836Z,30.63
2019-01-04T23:35:41.830Z,26.30
2019-01-04T23:38:26.739Z,29.37
2019-01-04T23:41:13.106Z,27.57
2019-01-04T23:43:49.048Z,30.10
2019-01-04T23:46:30.439Z,29.47
2019-01-04T23:49:09.829Z,26.87
2019-01-04T23:51:48.727Z,25.27
2019-01-04T23:54:18.553Z,25.67
2019-01-04T23:56:51.484Z,25.87
2019-01-04T23:59:27.140Z,24.47
